Time;durP1;ratioP1;P1;durP2;ratioP2;P2;SDS_P1;SDS_P2;PMS_P1;PMS_P2;Temp;Humidity;BMP_temperature;BMP_pressure;BME280_temperature;BME280_humidity;BME280_pressure;Samples;Min_cycle;Max_cycle;Signal;HPM_P1;HPM_P2
2022/01/30 00:01:44;;;;;;;2.35;0.93;;;;;;;7.08;77.79;98279.69;5082980;28;20039;-56
2022/01/30 00:04:11;;;;;;;2.15;0.93;;;;;;;6.88;77.77;98268.91;5093982;28;20495;-57
2022/01/30 00:06:38;;;;;;;1.50;0.90;;;;;;;6.73;77.25;98274.47;5088291;28;20442;-56
2022/01/30 00:09:08;;;;;;;2.22;0.90;;;;;;;6.98;76.64;98288.19;5091464;28;20063;-56
2022/01/30 00:11:37;;;;;;;1.20;0.80;;;;;;;7.24;75.29;98274.94;5082993;28;20040;-61
2022/01/30 00:14:06;;;;;;;1.50;0.80;;;;;;;6.54;78.21;98279.63;5079411;28;20044;-60
2022/01/30 00:16:36;;;;;;;3.13;1.00;;;;;;;5.97;80.66;98277.94;5083439;28;20036;-60
2022/01/30 00:21:40;;;;;;;3.05;0.90;;;;;;;6.01;80.94;98281.06;5083265;28;20036;-61
2022/01/30 00:24:13;;;;;;;;;;;;;;;5.95;81.43;98266.56;5083473;28;20538;-61
2022/01/30 00:26:41;;;;;;;1.42;0.85;;;;;;;5.83;81.80;98281.59;5083896;28;19927;-60
2022/01/30 00:29:08;;;;;;;1.77;0.98;;;;;;;5.88;81.38;98276.47;5077932;28;20550;-60
2022/01/30 00:31:37;;;;;;;1.65;1.00;;;;;;;5.90;81.43;98260.13;5085759;28;20040;-60
2022/01/30 00:34:23;;;;;;;1.90;0.90;;;;;;;5.99;81.21;98277.75;5071094;28;20055;-60
2022/01/30 00:36:50;;;;;;;2.00;1.42;;;;;;;5.98;81.02;98266.16;5088874;28;20569;-60
2022/01/30 00:39:16;;;;;;;3.65;1.45;;;;;;;5.90;81.64;98269.00;5070573;28;20097;-60
2022/01/30 00:41:43;;;;;;;2.25;0.98;;;;;;;5.94;81.43;98272.16;5084616;28;20044;-61
2022/01/30 00:44:09;;;;;;;1.55;0.82;;;;;;;5.98;81.45;98266.16;5085390;28;20580;-61
2022/01/30 00:46:38;;;;;;;2.97;1.20;;;;;;;5.92;81.83;98260.75;5080431;28;20056;-61
2022/01/30 00:49:04;;;;;;;1.58;0.70;;;;;;;5.99;81.30;98264.31;5089114;28;20043;-61
2022/01/30 00:51:31;;;;;;;1.92;1.10;;;;;;;5.94;81.91;98264.91;5084418;28;20515;-61
2022/01/30 00:53:57;;;;;;;2.75;1.50;;;;;;;5.93;82.03;98267.81;5086475;28;20047;-61
2022/01/30 00:56:24;;;;;;;2.42;1.10;;;;;;;5.86;81.97;98273.97;5071559;28;20531;-62
2022/01/30 00:58:50;;;;;;;3.00;1.67;;;;;;;5.98;81.95;98284.16;5075598;28;20036;-61
2022/01/30 01:01:17;;;;;;;2.65;1.35;;;;;;;5.92;82.35;98288.47;5086022;28;20453;-61
2022/01/30 01:03:44;;;;;;;1.52;0.90;;;;;;;5.94;82.61;98280.22;5083577;28;20086;-61
2022/01/30 01:06:11;;;;;;;1.10;0.70;;;;;;;5.93;82.65;98276.69;5079831;28;20571;-60
2022/01/30 01:08:54;;;;;;;4.10;1.40;;;;;;;5.93;82.75;98281.25;5091758;28;20534;-61
2022/01/30 01:24:37;;;;;;;2.72;1.42;;;;;;;5.86;83.29;98292.78;5083895;28;20517;-62
2022/01/30 01:27:03;;;;;;;3.58;1.05;;;;;;;5.88;83.04;98300.66;5065296;28;20049;-60
2022/01/30 01:29:30;;;;;;;4.78;1.60;;;;;;;5.91;82.89;98285.97;5077466;28;20044;-62
2022/01/30 01:31:56;;;;;;;3.05;1.23;;;;;;;5.88;83.08;98294.44;5085318;28;20044;-61
2022/01/30 01:34:32;;;;;;;1.50;0.90;;;;;;;5.94;82.71;98299.03;5077130;28;20055;-60
2022/01/30 01:36:59;;;;;;;2.92;1.52;;;;;;;5.93;82.62;98282.06;5072080;28;20503;-61
2022/01/30 01:39:26;;;;;;;3.67;1.10;;;;;;;6.04;82.24;98296.00;5086270;28;20032;-60
2022/01/30 01:41:52;;;;;;;1.63;0.88;;;;;;;5.89;82.77;98286.19;5085946;28;20044;-60
2022/01/30 01:44:39;;;;;;;1.58;0.80;;;;;;;5.86;83.03;98290.09;5084202;28;20529;-60
2022/01/30 01:47:08;;;;;;;2.47;1.13;;;;;;;5.92;83.08;98293.00;5083885;28;20048;-60
2022/01/30 01:49:35;;;;;;;4.53;1.00;;;;;;;5.88;83.22;98305.19;5084590;28;20407;-61
2022/01/30 01:54:50;;;;;;;1.27;0.60;;;;;;;5.92;82.68;98303.75;5064546;28;20053;-61
2022/01/30 01:57:17;;;;;;;1.45;0.80;;;;;;;5.89;82.72;98314.94;5082807;28;20044;-61
2022/01/30 01:59:48;;;;;;;1.75;0.80;;;;;;;5.87;82.61;98312.44;5083560;28;20040;-61
2022/01/30 02:02:37;;;;;;;1.23;0.60;;;;;;;5.86;82.53;98294.63;5083107;28;20133;-61
2022/01/30 02:05:06;;;;;;;0.90;0.50;;;;;;;5.86;82.41;98297.31;5083466;28;20048;-60
2022/01/30 02:10:24;;;;;;;1.55;0.80;;;;;;;5.81;82.88;98297.94;5081428;28;20051;-61
2022/01/30 02:12:54;;;;;;;2.00;0.98;;;;;;;5.77;82.85;98291.28;5072911;28;20707;-61
2022/01/30 02:25:59;;;;;;;3.47;1.20;;;;;;;5.76;82.17;98286.09;5100857;28;20044;-60
2022/01/30 02:28:28;;;;;;;3.05;1.38;;;;;;;5.75;81.84;98295.19;5085906;28;20046;-61
2022/01/30 02:31:01;;;;;;;1.63;0.93;;;;;;;5.77;82.07;98279.69;5080692;28;20048;-61
2022/01/30 02:33:28;;;;;;;4.45;1.45;;;;;;;5.58;82.57;98284.75;5080526;28;20089;-61
2022/01/30 02:35:55;;;;;;;2.03;1.17;;;;;;;5.56;82.76;98266.16;5071946;28;20079;-61
2022/01/30 02:38:23;;;;;;;3.35;1.23;;;;;;;5.54;82.62;98276.28;5096252;28;20596;-62
2022/01/30 02:40:53;;;;;;;2.17;1.00;;;;;;;5.55;82.42;98260.97;5106353;28;20046;-62
2022/01/30 02:43:24;;;;;;;4.10;1.50;;;;;;;5.46;82.79;98269.19;5080106;28;20051;-60
2022/01/30 02:46:26;;;;;;;2.50;1.05;;;;;;;5.47;82.85;98268.19;5083648;28;20040;-60
2022/01/30 02:48:51;;;;;;;2.42;1.33;;;;;;;5.48;82.35;98266.31;5082683;28;20085;-61
2022/01/30 02:51:22;;;;;;;3.15;1.17;;;;;;;5.44;82.88;98265.88;5086941;28;20044;-61
2022/01/30 02:54:02;;;;;;;6.25;1.00;;;;;;;5.46;83.07;98271.88;5072231;28;20446;-60
2022/01/30 02:56:35;;;;;;;1.65;0.90;;;;;;;5.38;84.00;98260.47;5066935;28;20801;-61
2022/01/30 02:59:01;;;;;;;3.33;1.40;;;;;;;5.25;85.07;98266.56;5080814;28;20052;-61
2022/01/30 03:01:28;;;;;;;2.20;0.77;;;;;;;5.23;85.39;98268.63;5079604;28;20527;-61
2022/01/30 03:03:55;;;;;;;2.67;1.20;;;;;;;5.18;85.60;98264.66;5073601;28;20049;-61
2022/01/30 03:06:21;;;;;;;2.03;0.98;;;;;;;5.13;85.49;98277.84;5078961;28;20048;-61
2022/01/30 03:08:48;;;;;;;4.00;1.42;;;;;;;5.11;85.59;98276.34;5088277;28;20048;-61
2022/01/30 03:11:14;;;;;;;2.20;0.85;;;;;;;5.17;85.34;98280.97;5082365;28;20064;-60
2022/01/30 03:13:41;;;;;;;1.73;0.90;;;;;;;5.17;85.11;98291.69;5086356;28;20043;-60
2022/01/30 03:16:07;;;;;;;1.45;0.70;;;;;;;5.12;85.15;98289.59;5082591;28;20047;-60
2022/01/30 03:18:35;;;;;;;1.00;0.80;;;;;;;5.10;84.99;98293.50;5087993;28;20044;-60
2022/01/30 03:21:03;;;;;;;1.55;0.80;;;;;;;5.11;84.62;98301.34;5080168;28;20060;-60
2022/01/30 03:23:30;;;;;;;3.47;1.00;;;;;;;5.08;84.78;98304.41;5083525;28;20044;-61
2022/01/30 03:25:59;;;;;;;3.75;1.38;;;;;;;5.07;84.33;98310.81;5083080;28;20055;-60
2022/01/30 03:28:50;;;;;;;2.75;0.90;;;;;;;5.11;84.11;98311.25;5075659;28;20131;-62
2022/01/30 03:31:22;;;;;;;3.08;1.30;;;;;;;5.04;84.46;98312.03;5081340;28;20044;-62
2022/01/30 03:33:49;;;;;;;4.10;1.40;;;;;;;5.06;84.22;98318.03;5073163;28;20466;-61
2022/01/30 03:36:22;;;;;;;2.10;1.08;;;;;;;5.14;83.50;98317.09;5078001;28;20459;-61
2022/01/30 03:38:49;;;;;;;3.08;1.17;;;;;;;5.09;83.74;98322.22;5065791;28;20103;-61
2022/01/30 03:41:16;;;;;;;3.78;1.55;;;;;;;5.07;83.72;98319.72;5076230;28;20041;-61
2022/01/30 03:43:42;;;;;;;4.15;1.45;;;;;;;5.07;83.32;98326.94;5075460;28;20044;-62
2022/01/30 03:46:10;;;;;;;5.97;1.35;;;;;;;5.10;83.99;98333.75;5082185;28;20419;-61
2022/01/30 03:48:37;;;;;;;2.90;1.60;;;;;;;5.20;83.46;98331.59;5086356;28;20085;-61
2022/01/30 03:51:07;;;;;;;3.40;1.20;;;;;;;5.13;83.69;98334.22;5086613;28;20036;-60
2022/01/30 03:53:34;;;;;;;2.85;1.48;;;;;;;5.08;83.81;98336.63;5074431;28;20043;-61
2022/01/30 03:56:01;;;;;;;4.18;1.40;;;;;;;5.17;83.29;98335.47;5069223;28;20044;-61
2022/01/30 03:58:31;;;;;;;5.60;1.30;;;;;;;5.15;83.32;98334.00;5086057;28;20689;-60
2022/01/30 04:01:04;;;;;;;3.28;1.42;;;;;;;5.08;83.47;98333.94;5066568;28;20105;-60
2022/01/30 04:03:31;;;;;;;3.58;1.20;;;;;;;5.17;82.91;98335.47;5076028;28;20036;-60
2022/01/30 04:05:57;;;;;;;5.32;1.67;;;;;;;5.08;82.93;98328.59;5068591;28;20128;-62
2022/01/30 04:08:24;;;;;;;5.78;2.72;;;;;;;5.04;83.18;98341.56;5078379;28;20099;-60
2022/01/30 04:11:17;;;;;;;6.18;2.33;;;;;;;5.05;82.57;98359.31;5069963;28;20383;-60
2022/01/30 04:14:13;;;;;;;6.15;2.08;;;;;;;5.02;83.05;98345.47;5066842;28;20047;-60
2022/01/30 04:16:59;;;;;;;4.40;1.80;;;;;;;5.01;83.07;98355.38;5086608;28;20135;-61
2022/01/30 04:19:50;;;;;;;5.82;1.90;;;;;;;5.01;83.17;98351.88;5085685;28;20044;-61
2022/01/30 04:22:42;;;;;;;5.85;2.30;;;;;;;5.00;82.88;98350.19;5073724;28;20060;-60
2022/01/30 04:25:32;;;;;;;5.10;2.13;;;;;;;4.94;83.33;98362.53;5081294;28;20699;-61
2022/01/30 04:28:33;;;;;;;8.13;2.33;;;;;;;4.94;83.20;98351.81;5077859;28;20059;-60
2022/01/30 04:31:20;;;;;;;4.50;1.65;;;;;;;4.92;83.42;98362.72;5077502;28;20151;-61
2022/01/30 04:33:56;;;;;;;8.18;2.75;;;;;;;4.85;83.80;98366.34;5082358;28;20043;-61
2022/01/30 04:36:39;;;;;;;7.88;2.63;;;;;;;4.73;84.41;98353.44;5071201;28;20071;-60
2022/01/30 04:57:38;;;;;;;5.22;2.50;;;;;;;4.39;84.49;98355.72;5081495;28;20130;-61
2022/01/30 05:00:54;;;;;;;9.00;3.08;;;;;;;4.34;84.79;98352.78;5082983;28;20043;-60
2022/01/30 05:06:53;;;;;;;6.45;2.70;;;;;;;4.31;84.47;98341.59;5054684;28;20064;-61
2022/01/30 05:09:39;;;;;;;6.90;2.97;;;;;;;4.28;84.29;98345.50;5086540;28;20047;-60
2022/01/30 05:12:22;;;;;;;6.63;2.60;;;;;;;4.43;83.72;98342.78;5072551;28;20105;-61
2022/01/30 05:15:18;;;;;;;11.02;2.85;;;;;;;4.38;83.46;98337.13;5064896;28;20618;-61
2022/01/30 05:18:10;;;;;;;7.47;2.47;;;;;;;4.38;83.65;98343.34;5073166;28;20058;-61
2022/01/30 05:21:00;;;;;;;5.97;2.83;;;;;;;4.34;83.87;98351.94;5064616;28;20060;-61
2022/01/30 05:23:50;;;;;;;8.55;1.90;;;;;;;4.35;84.04;98357.13;5078952;28;20608;-62
2022/01/30 05:26:25;;;;;;;11.63;2.65;;;;;;;4.38;83.50;98367.47;5076880;28;20051;-60
2022/01/30 05:29:16;;;;;;;12.90;3.75;;;;;;;4.36;83.98;98366.84;5064757;28;20053;-60
2022/01/30 05:31:53;;;;;;;9.70;2.42;;;;;;;4.38;83.61;98375.53;5071819;28;20122;-60
2022/01/30 05:34:58;;;;;;;9.30;2.83;;;;;;;4.36;83.72;98387.47;5053589;28;20057;-62
2022/01/30 05:37:32;;;;;;;10.90;2.55;;;;;;;4.38;83.69;98374.69;5069903;28;20446;-61
2022/01/30 05:40:18;;;;;;;8.10;2.90;;;;;;;4.38;83.52;98388.09;5066146;28;20047;-61
2022/01/30 05:42:48;;;;;;;8.57;3.03;;;;;;;4.37;83.57;98389.09;5083939;28;20499;-61
2022/01/30 05:45:44;;;;;;;7.45;2.45;;;;;;;4.31;83.65;98392.56;5082410;28;20055;-60
2022/01/30 05:48:27;;;;;;;6.88;2.25;;;;;;;4.35;82.73;98402.69;5075421;28;20040;-61
2022/01/30 05:50:58;;;;;;;5.20;2.15;;;;;;;4.39;81.81;98413.91;5083430;28;20044;-61
2022/01/30 05:53:45;;;;;;;6.22;2.63;;;;;;;4.22;82.65;98407.88;5072544;28;20480;-61
2022/01/30 05:56:16;;;;;;;7.65;2.65;;;;;;;4.10;82.80;98420.94;5082483;28;20051;-64
2022/01/30 05:58:43;;;;;;;8.18;2.50;;;;;;;3.98;82.70;98426.72;5070555;28;20135;-63
2022/01/30 06:01:28;;;;;;;5.70;2.17;;;;;;;3.87;82.65;98428.00;5074733;28;20054;-64
2022/01/30 06:04:06;;;;;;;11.60;2.80;;;;;;;3.71;83.02;98438.88;5087255;28;20493;-63
2022/01/30 06:06:33;;;;;;;9.55;2.95;;;;;;;3.70;82.81;98434.53;5086640;28;20066;-63
2022/01/30 06:09:18;;;;;;;7.72;2.58;;;;;;;3.59;83.27;98446.50;5074036;28;20040;-63
2022/01/30 06:11:51;;;;;;;11.75;2.70;;;;;;;3.53;83.20;98450.75;5070053;28;20037;-64
2022/01/30 06:14:19;;;;;;;11.35;2.90;;;;;;;3.44;83.35;98447.31;5084323;28;20758;-64
2022/01/30 06:16:47;;;;;;;8.77;3.53;;;;;;;3.46;83.26;98457.84;5076332;28;20062;-63
2022/01/30 06:19:35;;;;;;;6.88;2.53;;;;;;;3.47;82.94;98460.31;5078108;28;20060;-64
2022/01/30 06:22:20;;;;;;;12.10;2.58;;;;;;;3.32;83.58;98459.44;5085931;28;20058;-64
2022/01/30 06:25:07;;;;;;;8.50;2.67;;;;;;;3.30;83.44;98469.47;5094202;28;20084;-63
2022/01/30 06:27:56;;;;;;;10.95;2.28;;;;;;;3.29;83.39;98474.03;5084273;28;20044;-64
2022/01/30 06:30:58;;;;;;;10.30;3.05;;;;;;;3.18;83.78;98479.78;5026175;28;20124;-64
2022/01/30 06:33:44;;;;;;;7.22;2.50;;;;;;;3.13;83.98;98474.94;5082125;28;20047;-64
2022/01/30 06:36:29;;;;;;;10.88;4.07;;;;;;;3.21;83.60;98476.75;5068904;28;20059;-65
2022/01/30 06:39:14;;;;;;;6.45;1.95;;;;;;;3.15;83.95;98474.75;5087978;28;20591;-64
2022/01/30 06:42:03;;;;;;;7.47;2.25;;;;;;;3.19;83.92;98484.09;5086964;28;20040;-63
2022/01/30 06:44:49;;;;;;;4.88;2.28;;;;;;;3.27;83.52;98485.91;5085710;28;20062;-65
2022/01/30 06:47:42;;;;;;;6.28;2.10;;;;;;;3.21;83.73;98492.81;5082371;28;20059;-64
2022/01/30 06:50:29;;;;;;;8.50;2.45;;;;;;;3.20;83.81;98489.28;5088306;28;20048;-64
2022/01/30 06:53:14;;;;;;;7.00;2.58;;;;;;;3.16;83.93;98497.88;5088276;28;20141;-64
2022/01/30 06:55:59;;;;;;;14.23;3.13;;;;;;;3.16;83.56;98495.19;5089508;28;20043;-64
2022/01/30 06:58:44;;;;;;;7.40;2.75;;;;;;;3.15;84.07;98497.03;5083119;28;20047;-65
2022/01/30 07:01:30;;;;;;;9.40;3.15;;;;;;;3.13;84.38;98491.00;5082511;28;20438;-64
2022/01/30 07:04:29;;;;;;;11.80;2.53;;;;;;;3.17;83.95;98499.53;5057073;28;20051;-65
2022/01/30 07:07:05;;;;;;;7.05;2.90;;;;;;;3.09;84.67;98487.84;5091047;28;20130;-65
2022/01/30 07:09:32;;;;;;;5.70;2.67;;;;;;;3.11;84.61;98498.38;5087061;28;20039;-63
2022/01/30 07:11:59;;;;;;;10.40;3.10;;;;;;;3.11;84.84;98503.72;5078993;28;20079;-64
2022/01/30 07:14:26;;;;;;;13.43;3.55;;;;;;;3.12;84.80;98513.41;5077627;28;20059;-64
2022/01/30 07:16:53;;;;;;;8.40;3.15;;;;;;;3.18;84.44;98502.03;5082348;28;20086;-65
2022/01/30 07:19:20;;;;;;;10.30;3.50;;;;;;;3.24;84.79;98509.34;5085444;28;20073;-65
2022/01/30 07:21:46;;;;;;;9.32;3.22;;;;;;;3.40;84.64;98520.97;5078619;28;20503;-59
2022/01/30 07:24:13;;;;;;;6.97;2.65;;;;;;;3.62;83.74;98521.16;5101890;28;20056;-58
2022/01/30 07:26:40;;;;;;;7.95;2.90;;;;;;;3.69;83.58;98527.44;5087502;28;20048;-59
2022/01/30 07:29:06;;;;;;;7.97;2.85;;;;;;;3.74;83.48;98532.28;5090615;28;20052;-59
2022/01/30 07:31:33;;;;;;;12.30;4.63;;;;;;;3.63;83.22;98542.41;5083879;28;20054;-57
2022/01/30 07:34:01;;;;;;;7.50;2.95;;;;;;;3.59;83.41;98550.97;5075392;28;20138;-55
2022/01/30 07:36:28;;;;;;;8.68;2.88;;;;;;;3.72;83.05;98542.34;5098061;28;20052;-58
2022/01/30 07:38:55;;;;;;;12.65;4.20;;;;;;;3.73;81.78;98558.22;5076106;28;20052;-58
2022/01/30 07:41:22;;;;;;;8.82;2.47;;;;;;;3.83;80.80;98559.84;5086207;28;20044;-58
2022/01/30 07:43:49;;;;;;;9.02;2.55;;;;;;;3.75;80.88;98560.72;5084092;28;21019;-56
2022/01/30 07:46:19;;;;;;;13.00;3.38;;;;;;;3.61;81.54;98562.34;5087941;28;20112;-57
2022/01/30 07:48:46;;;;;;;9.25;2.78;;;;;;;3.66;80.55;98568.00;5088898;28;20042;-55
2022/01/30 07:51:13;;;;;;;10.18;2.97;;;;;;;3.68;81.00;98562.47;5085294;28;20437;-57
2022/01/30 07:53:39;;;;;;;8.85;2.55;;;;;;;3.66;79.97;98564.47;5081246;28;20093;-56
2022/01/30 07:56:06;;;;;;;8.65;2.67;;;;;;;3.67;79.82;98568.81;5084221;28;20051;-55
2022/01/30 07:58:33;;;;;;;7.90;3.00;;;;;;;3.70;79.91;98563.97;5085329;28;20507;-54
2022/01/30 08:00:59;;;;;;;10.57;3.45;;;;;;;3.90;79.44;98579.53;5086256;28;20536;-54
2022/01/30 08:03:26;;;;;;;10.05;2.78;;;;;;;4.01;80.44;98581.81;5096368;28;20043;-57
2022/01/30 08:05:53;;;;;;;12.00;3.20;;;;;;;4.13;78.35;98586.75;5085403;28;20044;-55
2022/01/30 08:08:20;;;;;;;9.95;3.10;;;;;;;4.02;79.23;98588.84;5085269;28;20040;-57
2022/01/30 08:10:47;;;;;;;11.82;3.13;;;;;;;3.93;79.51;98602.47;5084063;28;20081;-57
2022/01/30 08:13:15;;;;;;;9.70;2.45;;;;;;;3.82;79.63;98601.88;5096562;28;20058;-64
2022/01/30 08:15:44;;;;;;;9.98;2.65;;;;;;;3.79;79.96;98610.25;5079780;28;20445;-64
2022/01/30 08:18:10;;;;;;;4.72;2.20;;;;;;;3.65;80.12;98601.16;5083727;28;20511;-67
2022/01/30 08:20:37;;;;;;;12.13;3.38;;;;;;;3.59;80.32;98601.84;5083405;28;20078;-65
2022/01/30 08:23:10;;;;;;;10.00;3.63;;;;;;;3.51;80.76;98602.75;5082361;28;20514;-67
2022/01/30 08:25:38;;;;;;;10.82;3.30;;;;;;;3.52;80.81;98604.41;5082295;28;20063;-65
2022/01/30 08:28:04;;;;;;;10.40;2.67;;;;;;;3.56;81.40;98597.69;5084366;28;20059;-65
2022/01/30 08:30:31;;;;;;;9.52;3.08;;;;;;;3.65;80.88;98601.16;5081200;28;20040;-65
2022/01/30 08:32:59;;;;;;;12.02;3.00;;;;;;;3.65;80.54;98598.50;5078058;28;20048;-65
2022/01/30 08:35:26;;;;;;;6.05;2.45;;;;;;;3.77;80.56;98599.72;5081737;28;20058;-65
2022/01/30 08:37:53;;;;;;;10.95;2.80;;;;;;;3.79;80.51;98583.47;5083825;28;20056;-66
2022/01/30 08:40:21;;;;;;;8.48;2.67;;;;;;;3.75;80.68;98591.03;5082657;28;20039;-65
2022/01/30 08:42:49;;;;;;;13.18;3.47;;;;;;;3.60;81.31;98584.75;5084815;28;20048;-65
2022/01/30 08:45:17;;;;;;;10.73;3.53;;;;;;;3.60;81.29;98582.09;5085830;28;20035;-65
2022/01/30 08:47:46;;;;;;;8.25;2.70;;;;;;;3.61;80.36;98579.25;5082658;28;20043;-65
2022/01/30 08:50:15;;;;;;;11.38;3.08;;;;;;;3.58;80.56;98579.59;5092300;28;20051;-65
2022/01/30 08:52:43;;;;;;;8.85;2.60;;;;;;;3.64;80.09;98578.91;5084566;28;20052;-65
2022/01/30 08:55:10;;;;;;;6.97;2.40;;;;;;;3.84;79.61;98578.41;5083968;28;20093;-64
2022/01/30 08:57:37;;;;;;;10.15;2.88;;;;;;;3.80;79.46;98577.13;5082921;28;20043;-65
2022/01/30 09:00:09;;;;;;;8.48;2.58;;;;;;;3.69;80.34;98578.34;5092349;28;20127;-65
2022/01/30 09:02:37;;;;;;;6.45;3.05;;;;;;;3.73;80.24;98578.84;5081197;28;20040;-65
2022/01/30 09:05:06;;;;;;;10.88;2.80;;;;;;;3.79;79.94;98579.97;5081123;28;20205;-65
2022/01/30 09:07:34;;;;;;;9.15;2.97;;;;;;;3.95;79.83;98574.50;5072418;28;20131;-65
2022/01/30 09:10:01;;;;;;;7.28;2.72;;;;;;;3.95;79.08;98570.97;5083395;28;20677;-65
2022/01/30 09:12:27;;;;;;;12.00;2.70;;;;;;;3.94;79.76;98572.00;5082847;28;20089;-65
2022/01/30 09:14:54;;;;;;;12.65;3.22;;;;;;;4.00;78.83;98576.63;5095963;28;20179;-65
2022/01/30 09:17:22;;;;;;;11.95;2.55;;;;;;;4.20;78.62;98565.44;5079032;28;20047;-66
2022/01/30 09:19:49;;;;;;;7.82;3.10;;;;;;;4.26;78.35;98564.69;5083143;28;20044;-65
2022/01/30 09:22:17;;;;;;;8.75;2.78;;;;;;;4.45;76.92;98565.22;5073538;28;20057;-65
2022/01/30 09:24:45;;;;;;;7.50;3.00;;;;;;;4.39;76.44;98570.25;5070608;28;20090;-65
2022/01/30 09:27:12;;;;;;;9.40;3.20;;;;;;;4.22;76.75;98579.47;5081378;28;20506;-65
2022/01/30 09:29:39;;;;;;;9.48;2.95;;;;;;;4.12;76.80;98580.56;5083906;28;20039;-65
2022/01/30 09:32:07;;;;;;;12.40;3.03;;;;;;;4.10;76.82;98573.72;5084859;28;20227;-65
2022/01/30 09:34:36;;;;;;;8.85;3.05;;;;;;;4.22;76.47;98585.69;5082917;28;20056;-65
2022/01/30 09:37:05;;;;;;;13.82;3.05;;;;;;;4.25;75.57;98582.66;5079671;28;20063;-65
2022/01/30 09:39:32;;;;;;;15.95;2.80;;;;;;;4.58;75.44;98596.75;5075026;28;20044;-65
2022/01/30 09:41:59;;;;;;;10.65;3.03;;;;;;;4.46;74.28;98591.81;5078082;28;20048;-65
2022/01/30 09:44:26;;;;;;;12.07;2.50;;;;;;;4.46;74.52;98586.44;5086602;28;20101;-67
2022/01/30 09:46:53;;;;;;;6.15;2.42;;;;;;;4.42;73.74;98580.63;5085256;28;20400;-65
2022/01/30 09:49:23;;;;;;;9.30;3.25;;;;;;;4.34;72.72;98579.84;5089019;28;20110;-65
2022/01/30 09:51:52;;;;;;;11.40;2.83;;;;;;;4.25;73.94;98579.97;5084516;28;20040;-67
2022/01/30 09:54:19;;;;;;;6.70;2.58;;;;;;;4.54;73.19;98578.31;5094192;28;20047;-67
2022/01/30 09:56:45;;;;;;;12.13;3.22;;;;;;;4.54;73.58;98578.31;5085128;28;20779;-68
2022/01/30 09:59:12;;;;;;;10.25;2.70;;;;;;;4.68;73.19;98575.84;5078681;28;20066;-68
2022/01/30 10:01:38;;;;;;;7.88;2.33;;;;;;;4.50;74.53;98577.03;5088947;28;20084;-68
2022/01/30 10:04:06;;;;;;;12.43;2.60;;;;;;;4.55;72.64;98580.03;5083248;28;20119;-68
2022/01/30 10:06:54;;;;;;;10.10;2.45;;;;;;;4.46;71.51;98596.38;5093953;28;20096;-66
2022/01/30 10:09:30;;;;;;;7.68;2.00;;;;;;;4.42;70.44;98586.00;5090930;28;20047;-66
2022/01/30 10:15:03;;;;;;;8.63;2.30;;;;;;;4.46;69.27;98591.81;5082405;28;20109;-66
2022/01/30 10:17:41;;;;;;;8.73;1.88;;;;;;;4.81;67.97;98591.31;5084906;28;20040;-68
2022/01/30 10:20:27;;;;;;;10.95;2.35;;;;;;;4.55;67.97;98587.22;5074139;28;20044;-70
2022/01/30 10:23:01;;;;;;;13.18;2.40;;;;;;;4.86;68.24;98606.88;5084440;28;20105;-67
2022/01/30 10:25:38;;;;;;;10.15;2.47;;;;;;;4.86;67.27;98605.00;5079732;28;20032;-68
2022/01/30 10:28:12;;;;;;;12.07;2.00;;;;;;;4.72;66.90;98605.84;5071975;28;20080;-66
2022/01/30 10:30:54;;;;;;;9.80;2.15;;;;;;;4.69;67.31;98599.81;5079501;28;20499;-64
2022/01/30 10:33:36;;;;;;;11.98;2.63;;;;;;;4.82;67.93;98595.66;5081624;28;20156;-66
2022/01/30 10:36:03;;;;;;;13.00;2.85;;;;;;;4.51;68.57;98597.50;5079842;28;20044;-65
2022/01/30 10:38:36;;;;;;;6.65;1.85;;;;;;;4.49;69.09;98594.13;5070224;28;20051;-67
2022/01/30 10:41:11;;;;;;;9.35;2.58;;;;;;;4.22;69.81;98606.28;5083620;28;20036;-64
2022/01/30 10:44:02;;;;;;;12.18;3.10;;;;;;;4.57;69.65;98606.63;5082351;28;20056;-64
2022/01/30 10:46:30;;;;;;;13.57;2.40;;;;;;;4.83;70.20;98616.09;5085305;28;20044;-65
2022/01/30 10:48:59;;;;;;;8.15;2.35;;;;;;;4.83;70.54;98618.78;5093110;28;20063;-65
2022/01/30 10:51:35;;;;;;;15.23;3.35;;;;;;;4.73;69.29;98608.34;5095844;28;20059;-72
2022/01/30 10:54:13;;;;;;;11.40;2.53;;;;;;;4.66;69.62;98602.88;5074070;28;20040;-65
2022/01/30 10:56:40;;;;;;;12.63;2.78;;;;;;;4.50;69.84;98598.47;5085623;28;20051;-68
2022/01/30 10:59:12;;;;;;;14.00;3.17;;;;;;;4.56;69.69;98594.25;5075441;28;20037;-74
2022/01/30 11:01:50;;;;;;;14.63;2.50;;;;;;;4.57;70.42;98593.22;5082275;28;20078;-70
2022/01/30 11:04:35;;;;;;;10.82;2.53;;;;;;;4.43;70.10;98592.19;5085693;28;20050;-68
2022/01/30 11:07:03;;;;;;;10.18;2.72;;;;;;;4.48;70.67;98608.56;5083647;28;20090;-67
2022/01/30 11:09:35;;;;;;;8.30;2.28;;;;;;;4.47;70.28;98596.19;5081012;28;20055;-66
2022/01/30 11:12:15;;;;;;;11.20;2.75;;;;;;;4.49;69.07;98599.50;5079332;28;20480;-69
2022/01/30 11:17:18;;;;;;;11.73;3.55;;;;;;;4.26;68.17;98600.38;5092608;28;20531;-67
2022/01/30 11:19:51;;;;;;;44.97;16.23;;;;;;;4.25;68.18;98598.72;5094412;28;20059;-66
2022/01/30 11:22:21;;;;;;;10.85;2.70;;;;;;;4.38;69.01;98599.94;5082830;28;20142;-66
2022/01/30 11:24:50;;;;;;;7.63;2.25;;;;;;;4.35;69.01;98601.13;5092105;28;20040;-65
2022/01/30 11:27:23;;;;;;;12.35;4.15;;;;;;;4.18;70.15;98597.78;5081033;28;20047;-68
2022/01/30 11:29:51;;;;;;;14.02;5.10;;;;;;;4.09;69.82;98599.66;5085575;28;20043;-68
2022/01/30 11:32:19;;;;;;;15.27;3.95;;;;;;;4.01;69.25;98600.56;5081630;28;20509;-65
2022/01/30 11:34:51;;;;;;;9.50;2.22;;;;;;;3.98;69.27;98598.25;5082833;28;20109;-65
2022/01/30 11:37:27;;;;;;;11.82;2.40;;;;;;;3.91;69.02;98600.00;5084742;28;20054;-65
2022/01/30 11:39:54;;;;;;;;;;;;;;;3.76;68.33;98597.25;5087360;28;20043;-65
2022/01/30 11:42:25;;;;;;;12.25;3.60;;;;;;;3.77;68.41;98591.69;5079683;28;19923;-65
2022/01/30 11:45:03;;;;;;;12.80;4.03;;;;;;;3.87;67.36;98599.50;5077850;28;20052;-65
2022/01/30 11:48:00;;;;;;;11.35;3.83;;;;;;;4.09;66.08;98598.84;5083436;28;20047;-65
2022/01/30 11:50:29;;;;;;;8.98;1.60;;;;;;;4.19;65.93;98596.75;5081724;28;20445;-65
2022/01/30 11:53:10;;;;;;;9.38;1.80;;;;;;;4.17;63.49;98601.47;5084250;28;20039;-65
2022/01/30 11:55:46;;;;;;;14.02;5.63;;;;;;;3.99;63.63;98586.53;5080394;28;20082;-65
2022/01/30 11:58:33;;;;;;;8.05;2.08;;;;;;;4.38;62.46;98587.38;5082354;28;20098;-64
2022/01/30 12:01:02;;;;;;;4.35;1.10;;;;;;;4.61;62.49;98566.88;5082196;28;20040;-65
2022/01/30 12:03:35;;;;;;;6.38;1.83;;;;;;;4.78;62.25;98556.78;5082091;28;20075;-64
2022/01/30 12:06:20;;;;;;;10.82;2.08;;;;;;;4.69;62.16;98546.16;5083955;28;20032;-64
2022/01/30 12:08:49;;;;;;;5.10;1.92;;;;;;;4.65;62.32;98539.47;5083288;28;20079;-65
2022/01/30 12:11:34;;;;;;;11.32;1.73;;;;;;;4.57;62.50;98536.06;5097173;28;20055;-64
2022/01/30 12:14:05;;;;;;;10.35;2.67;;;;;;;4.40;63.05;98536.25;5080405;28;20052;-64
2022/01/30 12:16:41;;;;;;;7.35;1.70;;;;;;;4.47;64.11;98539.03;5079996;28;20051;-64
2022/01/30 12:19:08;;;;;;;7.90;2.42;;;;;;;4.47;64.65;98534.50;5075806;28;20032;-65
2022/01/30 12:21:34;;;;;;;8.80;1.80;;;;;;;4.37;64.39;98537.44;5076919;28;20808;-66
2022/01/30 12:24:24;;;;;;;9.27;1.85;;;;;;;4.24;64.98;98540.72;5079766;28;20048;-66
2022/01/30 12:27:00;;;;;;;13.90;3.63;;;;;;;4.30;65.29;98544.53;5082250;28;20399;-66
2022/01/30 12:29:35;;;;;;;7.85;1.70;;;;;;;4.16;64.54;98541.66;5090754;28;20047;-71
2022/01/30 12:32:20;;;;;;;14.20;3.50;;;;;;;3.98;64.21;98544.66;5080492;28;20040;-66
2022/01/30 12:35:01;;;;;;;16.63;3.47;;;;;;;3.80;65.40;98549.50;5087024;28;20075;-66
2022/01/30 12:37:30;;;;;;;13.68;2.92;;;;;;;3.73;64.08;98541.34;5091695;28;20063;-65
2022/01/30 12:39:59;;;;;;;9.95;4.13;;;;;;;3.88;64.70;98544.06;5097207;28;20105;-67
2022/01/30 12:42:30;;;;;;;12.95;1.77;;;;;;;4.07;63.07;98548.09;5090374;28;20418;-66
2022/01/30 12:45:01;;;;;;;14.00;2.65;;;;;;;4.40;63.15;98537.09;5084632;28;20880;-66
2022/01/30 12:47:27;;;;;;;5.53;1.33;;;;;;;4.81;62.41;98534.97;5082293;28;20036;-66
2022/01/30 12:49:58;;;;;;;7.93;1.80;;;;;;;4.99;62.25;98534.59;5091731;28;20089;-67
2022/01/30 12:55:01;;;;;;;9.43;4.05;;;;;;;4.93;63.37;98513.84;5093983;28;20047;-67
2022/01/30 12:57:33;;;;;;;8.45;2.45;;;;;;;5.07;63.48;98514.84;5081699;28;20052;-66
2022/01/30 13:00:01;;;;;;;6.05;2.10;;;;;;;4.96;62.77;98516.16;5074761;28;20195;-69
2022/01/30 13:02:29;;;;;;;21.80;5.07;;;;;;;4.88;63.21;98510.88;5077144;28;20044;-71
2022/01/30 13:05:00;;;;;;;14.23;2.90;;;;;;;4.97;62.87;98517.81;5077167;28;20101;-68
2022/01/30 13:07:27;;;;;;;12.40;2.20;;;;;;;4.82;62.62;98524.03;5083383;28;20681;-67
2022/01/30 13:10:13;;;;;;;12.30;4.40;;;;;;;4.57;62.55;98525.34;5096419;28;20050;-69